Flight Track Log - Related Links

Times and Time Zones

All times are in EDT time to prevent confusion due to time zone crossing. See the QXE11 flight status page for this flight to view local times or setup timezone preferences in your user account.

Time Position Orientation Groundspeed Altitude Reporting Facility
EDT Latitude Longitude Course Direction KTS MPH feet Rate Location/Type
Wed 01:24:39 PM 47.4436 -122.3089 182° South 119 137 1,000  Level Seattle Center
Wed 01:26:06 PM 47.3883 -122.3117 182° South 158 182 3,600 1,905 Climbing Seattle Center
Wed 01:27:07 PM 47.3386 -122.3136 187° South 176 203 5,700 2,066 Climbing Seattle Center
Wed 01:28:08 PM 47.2850 -122.3239 188° South 196 226 7,800 1,918 Climbing Seattle Center
Wed 01:29:09 PM 47.2278 -122.3356 188° South 203 234 9,600 1,574 Climbing Seattle Center
Wed 01:30:10 PM 47.1667 -122.3483 187° South 226 260 11,000 1,623 Climbing Seattle Center
Wed 01:31:11 PM 47.0869 -122.3633 188° South 242 278 12,900 1,672 Climbing Seattle Center
Wed 01:32:12 PM 47.0203 -122.3764 187° South 244 281 14,400 1,415 Climbing Seattle Center
Wed 01:33:14 PM 46.9525 -122.3889 187° South 247 284 15,800 1,366 Climbing Seattle Center
Wed 01:34:15 PM 46.8861 -122.4014 189° South 244 281 17,200 1,377 Climbing Seattle Center
Wed 01:35:16 PM 46.8206 -122.4158 189° South 241 277 18,600 1,328 Climbing Seattle Center
Wed 01:36:17 PM 46.7567 -122.4308 182° South 238 274 19,900 1,131 Climbing Seattle Center
Wed 01:37:18 PM 46.6886 -122.4350 187° South 241 277 20,900 885 Climbing Seattle Center
Wed 01:38:19 PM 46.6217 -122.4472 187° South 244 281 21,700 829 Climbing Seattle Center
Wed 01:39:21 PM 46.5414 -122.4606 189° South 244 281 22,600 634 Climbing Seattle Center
Wed 01:40:22 PM 46.4747 -122.4761 188° South 245 282 23,000 197 Climbing Seattle Center
Wed 01:41:23 PM 46.4178 -122.4883 187° South 253 291 23,000  Level Seattle Center
Wed 01:42:24 PM 46.3256 -122.5047 183° South 273 314 23,000  Level Seattle Center
Wed 01:43:25 PM 46.2444 -122.5117 186° South 287 330 23,000 -49 Level Seattle Center
Wed 01:44:26 PM 46.1619 -122.5236 186° South 285 328 22,900  Descending Seattle Center
Wed 01:45:28 PM 46.0833 -122.5361 187° South 285 328 23,000 49 Climbing Seattle Center
Wed 01:46:29 PM 46.0058 -122.5497 187° South 282 325 23,000 -49 Level Seattle Center
Wed 01:47:30 PM 45.9281 -122.5628 186° South 282 325 22,900 -49 Descending Seattle Center
Wed 01:48:31 PM 45.8497 -122.5742 186° South 281 323 22,900 49 Level Seattle Center
Wed 01:49:32 PM 45.7728 -122.5864 186° South 280 322 23,000 49 Climbing Seattle Center
Wed 01:50:34 PM 45.6803 -122.6003 183° South 279 321 23,000  Level Seattle Center
Wed 01:51:35 PM 45.6022 -122.6053 184° South 279 321 23,000  Level Seattle Center
Wed 01:52:36 PM 45.5236 -122.6139 184° South 281 323 23,000  Level Seattle Center
Wed 01:53:37 PM 45.4458 -122.6225 184° South 281 323 23,000  Level Seattle Center
Wed 01:54:39 PM 45.3672 -122.6303 185° South 282 325 23,000  Level Seattle Center
Wed 01:55:40 PM 45.2886 -122.6392 184° South 283 326 23,000 -49 Level Seattle Center
Wed 01:56:41 PM 45.2083 -122.6481 183° South 286 329 22,900  Descending Seattle Center
Wed 01:57:42 PM 45.1281 -122.6544 184° South 287 330 23,000 49 Climbing Seattle Center
Wed 01:58:43 PM 45.0481 -122.6631 185° South 287 330 23,000  Level Seattle Center
Wed 01:59:45 PM 44.9683 -122.6725 183° South 287 330 23,000  Level Seattle Center
Wed 02:00:46 PM 44.8872 -122.6794 184° South 289 333 23,000 -49 Level Seattle Center
Wed 02:01:47 PM 44.8064 -122.6867 184° South 290 334 22,900  Descending Seattle Center
Wed 02:02:48 PM 44.7097 -122.6964 184° South 290 334 23,000 49 Climbing Seattle Center
Wed 02:03:49 PM 44.6292 -122.7053 184° South 289 333 23,000  Level Seattle Center
Wed 02:04:50 PM 44.5486 -122.7131 183° South 290 334 23,000  Level Seattle Center
Wed 02:05:51 PM 44.4681 -122.7197 184° South 290 334 23,000  Level Seattle Center
Wed 02:06:53 PM 44.3889 -122.7283 184° South 286 329 23,000  Level Seattle Center
Wed 02:07:54 PM 44.3089 -122.7358 184° South 288 331 23,000  Level Seattle Center
Wed 02:08:55 PM 44.2283 -122.7436 184° South 288 331 23,000  Level Seattle Center
Wed 02:09:56 PM 44.1481 -122.7514 184° South 288 331 23,000  Level Seattle Center
Wed 02:10:57 PM 44.0686 -122.7594 187° South 287 330 23,000  Level Seattle Center
Wed 02:11:58 PM 43.9883 -122.7731 188° South 288 331 23,000  Level Seattle Center
Wed 02:12:59 PM 43.9089 -122.7883 188° South 288 331 23,000  Level Seattle Center
Wed 02:14:01 PM 43.8300 -122.8031 187° South 286 329 23,000  Level Seattle Center
Wed 02:15:02 PM 43.7344 -122.8200 188° South 287 330 23,000  Level Seattle Center
Wed 02:16:03 PM 43.6561 -122.8344 187° South 285 328 23,000  Level Seattle Center
Wed 02:17:04 PM 43.5772 -122.8481 188° South 284 327 23,000  Level Seattle Center
Wed 02:18:06 PM 43.4989 -122.8625 188° South 284 327 23,000  Level Seattle Center
Wed 02:19:07 PM 43.4200 -122.8786 188° South 285 328 23,000  Level Seattle Center
Wed 02:20:08 PM 43.3422 -122.8931 188° South 284 327 23,000 -148 Level Seattle Center
Wed 02:21:09 PM 43.2639 -122.9075 186° South 283 326 22,700 -1,230 Descending Seattle Center
Wed 02:22:10 PM 43.1806 -122.9203 188° South 294 338 20,500 -2,146 Descending Seattle Center
Wed 02:23:12 PM 43.0911 -122.9372 187° South 315 362 18,300 -2,146 Descending Seattle Center
Wed 02:24:13 PM 43.0039 -122.9525 188° South 317 365 16,100 -2,115 Descending Seattle Center
Wed 02:25:14 PM 42.9208 -122.9678 188° South 306 352 14,000 -2,016 Descending Seattle Center
Wed 02:26:15 PM 42.8422 -122.9822 186° South 293 337 12,000 -2,016 Descending Seattle Center
Wed 02:27:16 PM 42.7592 -122.9936 189° South 252 290 9,900 -1,805 Descending Seattle Center
Wed 02:28:18 PM 42.6978 -123.0064 185° South 230 265 8,300 -1,512 Descending Seattle Center
Wed 02:29:19 PM 42.6381 -123.0139 158° South 221 254 6,800 -1,426 Descending Seattle Center
Wed 02:30:20 PM 42.5811 -122.9833 158° South 223 257 5,400 -1,268 Descending Seattle Center
Wed 02:31:22 PM 42.5247 -122.9519 160° South 223 257 4,200 -1,073 Descending Seattle Center
Wed 02:32:23 PM 42.4736 -122.9264 163° South 211 243 3,200 -639 Descending Seattle Center
Wed 02:33:24 PM 42.4286 -122.9075 163° South 202 232 2,900 -295 Descending Seattle Center

Login

Don't have an account? Register now (free) for customized features, flight alerts, and more!